Aviation Digital Data Service (ADDS)

Output produced by TAFs form (1525 UTC 22 October 2014)
found at http://www.aviationweather.gov/adds/tafs/
 
KGFL 221146Z 2212/2312 36009KT P6SM FEW017 OVC025 
     TEMPO 2212/2215 BKN015 OVC025 
     FM221700 01011KT P6SM -SHRA SCT015 OVC025 
     FM222100 01012G18KT 4SM -RA BR SCT008 OVC015 
     FM230500 36012G18KT 3SM -RA BR BKN008 OVC012